ONX weather

Currituck County Regional Airport
Currituck, North Carolina, United States

Public forecast

Using degrees Fahrenheit for public forecast. Weather courtesy of forecast.io.

METAR (pilot weather report)

Retrieved 2019/04/24 22:20 UTC (0 seconds ago):

KONX 242220Z AUTO 10SM CLR 29/14 A2982 RMK AO2 T02870144

TAF (pilot weather forecast)

Closest forecast is Elizabeth City Regional Airport & Coast Guard Air Station, 11.3 nm (20.9 km) SW. Retrieved 2019/04/24 18:48 UTC (4 hours ago):

TAF KECG 241743Z 2418/2518 26007KT P6SM SCT200 FM242000 16007KT P6SM SCT050 BKN100 FM250000 10006KT P6SM BKN250